Time;durP1;ratioP1;P1;durP2;ratioP2;P2;SDS_P1;SDS_P2;PMS_P1;PMS_P2;Temp;Humidity;BMP_temperature;BMP_pressure;BME280_temperature;BME280_humidity;BME280_pressure;Samples;Min_cycle;Max_cycle;Signal;HPM_P1;HPM_P2
2021/04/18 00:01:32;;;;;;;8.63;5.32;;;6.40;99.90;;;6.27;75.24;102137.78;4178303;28;20055;-66
2021/04/18 00:03:33;;;;;;;7.05;5.50;;;6.40;99.90;;;6.28;75.45;102146.47;4168251;28;20025;-66
2021/04/18 00:05:34;;;;;;;9.15;5.38;;;6.40;99.90;;;6.18;75.54;102148.81;4155206;28;20037;-66
2021/04/18 00:07:35;;;;;;;7.72;5.22;;;6.40;99.90;;;6.26;74.69;102146.56;4167978;28;20037;-66
2021/04/18 00:09:36;;;;;;;10.48;5.10;;;6.40;99.90;;;6.15;75.04;102135.06;4168237;28;20080;-66
2021/04/18 00:11:41;;;;;;;7.05;5.32;;;6.40;99.90;;;6.15;75.84;102151.63;4169312;28;20033;-66
2021/04/18 00:13:42;;;;;;;7.15;4.80;;;6.40;99.90;;;6.09;76.08;102144.13;4168191;28;20060;-66
2021/04/18 00:15:44;;;;;;;8.27;4.75;;;6.30;99.90;;;6.16;76.02;102145.44;4158684;28;20108;-66
2021/04/18 00:17:45;;;;;;;6.78;4.57;;;6.30;99.90;;;6.20;75.31;102139.06;4184306;28;20037;-66
2021/04/18 00:19:47;;;;;;;9.25;4.78;;;6.30;99.90;;;6.16;74.59;102140.19;4168959;28;20092;-66
2021/04/18 00:21:48;;;;;;;8.27;5.03;;;6.30;99.90;;;5.94;75.89;102132.78;4168155;28;20033;-66
2021/04/18 00:23:49;;;;;;;7.72;5.38;;;6.30;99.90;;;5.84;76.55;102143.88;4169037;28;20439;-66
2021/04/18 00:25:51;;;;;;;7.43;4.85;;;6.10;99.90;;;5.88;76.78;102148.03;4169200;28;20025;-66
2021/04/18 00:27:52;;;;;;;7.63;4.88;;;6.10;99.90;;;5.88;77.03;102150.66;4184340;28;20460;-66
2021/04/18 00:29:53;;;;;;;6.80;4.50;;;6.10;99.90;;;5.96;75.52;102138.78;4167732;28;20025;-66
2021/04/18 00:31:53;;;;;;;9.85;4.88;;;6.10;99.90;;;5.95;75.11;102136.25;4167949;28;20417;-66
2021/04/18 00:33:54;;;;;;;6.82;5.07;;;6.10;99.90;;;6.05;74.46;102132.16;4168808;28;20065;-66
2021/04/18 00:35:55;;;;;;;9.27;5.30;;;6.10;99.90;;;6.04;74.82;102125.22;4167926;28;20025;-66
2021/04/18 00:37:56;;;;;;;8.90;4.57;;;6.10;99.90;;;5.89;75.28;102116.50;4183886;28;20036;-66
2021/04/18 00:39:57;;;;;;;7.45;4.78;;;6.10;99.90;;;5.96;75.31;102117.00;4167825;28;20025;-66
2021/04/18 00:41:58;;;;;;;7.68;4.57;;;6.10;99.90;;;6.08;74.34;102116.25;4184207;28;20033;-66
2021/04/18 00:43:59;;;;;;;6.78;4.72;;;6.20;99.90;;;6.04;74.46;102126.06;4168989;28;20059;-66
2021/04/18 00:46:00;;;;;;;7.00;4.88;;;6.20;99.90;;;6.04;74.57;102118.22;4167592;28;20072;-66
2021/04/18 00:48:02;;;;;;;8.45;4.63;;;6.10;99.90;;;5.99;73.92;102116.81;4168963;28;20025;-66
2021/04/18 00:50:04;;;;;;;6.97;4.72;;;6.10;99.90;;;5.85;75.00;102117.66;4167770;28;20400;-66
2021/04/18 00:52:05;;;;;;;8.13;5.07;;;6.10;99.90;;;5.74;75.09;102120.00;4167399;28;20100;-66
2021/04/18 00:54:06;;;;;;;8.73;3.83;;;6.00;99.90;;;5.55;76.41;102112.41;4167529;28;20108;-66
2021/04/18 00:56:08;;;;;;;8.07;4.43;;;5.90;99.90;;;5.64;75.94;102104.97;4167486;28;20064;-66
2021/04/18 00:58:11;;;;;;;8.52;5.50;;;5.90;99.90;;;5.59;76.27;102106.06;4159828;28;20105;-66
2021/04/18 01:00:13;;;;;;;8.15;4.25;;;5.80;99.90;;;5.76;75.74;102104.22;4180119;28;20021;-66
2021/04/18 01:02:14;;;;;;;7.65;4.43;;;5.90;99.90;;;5.73;75.06;102110.50;4167369;28;20029;-66
2021/04/18 01:04:15;;;;;;;8.95;5.75;;;5.80;99.90;;;5.74;73.77;102099.06;4168736;28;20032;-66
2021/04/18 01:06:16;;;;;;;5.90;4.57;;;5.90;99.90;;;5.73;73.80;102104.41;4167450;28;20527;-66
2021/04/18 01:08:17;;;;;;;7.63;4.20;;;5.90;99.90;;;5.75;73.28;102105.16;4168365;28;20476;-66
2021/04/18 01:10:19;;;;;;;5.30;3.63;;;5.90;99.90;;;5.83;72.62;102100.28;4168524;28;20041;-66
2021/04/18 01:12:21;;;;;;;8.68;5.35;;;6.00;99.90;;;5.72;73.50;102092.25;4167445;28;20021;-66
2021/04/18 01:14:23;;;;;;;7.85;4.47;;;6.00;99.90;;;5.64;73.38;102097.94;4159874;28;20060;-66
2021/04/18 01:16:23;;;;;;;6.05;4.32;;;5.90;99.90;;;5.64;73.66;102089.25;4167275;28;20033;-66
2021/04/18 01:18:24;;;;;;;7.10;4.60;;;5.80;99.90;;;5.64;74.02;102097.09;4168403;28;20022;-66
2021/04/18 01:20:25;;;;;;;7.57;4.80;;;5.80;99.90;;;5.48;74.02;102095.41;4167380;28;20025;-66
2021/04/18 01:22:26;;;;;;;4.93;4.13;;;5.80;99.90;;;5.30;74.79;102087.78;4167324;28;20033;-66
2021/04/18 01:24:27;;;;;;;8.32;4.53;;;5.70;99.90;;;5.44;73.74;102093.03;4168537;28;20397;-66
2021/04/18 01:26:28;;;;;;;12.45;4.70;;;5.70;99.90;;;5.40;73.88;102092.41;4167176;28;20041;-66
2021/04/18 01:28:30;;;;;;;6.20;4.15;;;5.60;99.90;;;5.32;74.89;102091.13;4183741;28;20044;-66
2021/04/18 01:30:31;;;;;;;7.82;3.85;;;5.60;99.90;;;5.23;74.79;102095.13;4150911;28;20034;-66
2021/04/18 01:32:31;;;;;;;8.70;5.35;;;5.60;99.90;;;5.22;74.76;102095.22;4170149;28;20096;-67
2021/04/18 01:34:33;;;;;;;6.45;4.63;;;5.50;99.90;;;5.30;74.61;102101.69;4171759;28;20036;-66
2021/04/18 01:36:34;;;;;;;7.50;4.55;;;5.50;99.90;;;5.27;74.98;102096.66;4170550;28;20029;-66
2021/04/18 01:38:35;;;;;;;6.53;4.85;;;5.50;99.90;;;5.20;75.14;102104.91;4171647;28;20026;-66
2021/04/18 01:40:37;;;;;;;6.95;4.45;;;5.40;99.90;;;5.12;75.51;102097.53;4170581;28;20029;-66
2021/04/18 01:42:38;;;;;;;9.43;5.25;;;5.40;99.90;;;5.15;75.55;102099.97;4170429;28;20168;-66
2021/04/18 01:44:39;;;;;;;5.80;4.35;;;5.40;99.90;;;5.01;75.87;102092.06;4170647;28;20025;-66
2021/04/18 01:46:45;;;;;;;8.18;4.68;;;5.30;99.90;;;4.95;75.85;102088.03;4187042;28;20029;-66
2021/04/18 01:48:46;;;;;;;8.18;4.57;;;5.20;99.90;;;5.01;75.28;102090.31;4171616;28;20029;-66
2021/04/18 01:50:51;;;;;;;8.70;4.20;;;5.20;99.90;;;4.97;75.36;102088.78;4171639;28;20060;-66
2021/04/18 01:52:52;;;;;;;6.68;4.55;;;5.20;99.90;;;4.99;74.86;102094.75;4169980;28;20088;-66
2021/04/18 01:54:53;;;;;;;5.50;4.03;;;5.20;99.90;;;5.09;74.54;102089.00;4171674;28;20405;-66
2021/04/18 01:56:54;;;;;;;7.32;3.90;;;5.20;99.90;;;5.05;75.72;102084.91;4170345;28;20104;-66
2021/04/18 01:58:55;;;;;;;10.10;5.65;;;5.20;99.90;;;5.00;75.42;102083.38;4158201;28;20465;-66
2021/04/18 02:00:56;;;;;;;8.00;4.53;;;5.20;99.90;;;5.11;73.65;102085.38;4170416;28;20032;-66
2021/04/18 02:02:58;;;;;;;7.55;4.72;;;5.20;99.90;;;5.16;73.24;102070.28;4170590;28;20047;-66
2021/04/18 02:04:59;;;;;;;5.15;4.57;;;5.20;99.90;;;5.09;73.89;102081.16;4186886;28;20024;-66
2021/04/18 02:07:01;;;;;;;6.63;3.70;;;5.30;99.90;;;4.92;74.31;102077.75;4170003;28;20042;-66
2021/04/18 02:09:02;;;;;;;7.35;4.10;;;5.20;99.90;;;4.98;73.68;102069.56;4169948;28;20568;-66
2021/04/18 02:11:03;;;;;;;6.75;4.10;;;5.20;99.90;;;4.92;73.70;102080.38;4163391;28;20065;-66
2021/04/18 02:13:04;;;;;;;6.28;4.47;;;5.20;99.90;;;4.83;74.80;102066.97;4171384;28;20108;-66
2021/04/18 02:15:06;;;;;;;5.72;4.05;;;5.10;99.90;;;4.75;75.63;102063.97;4169982;28;20034;-66
2021/04/18 02:17:07;;;;;;;5.75;4.05;;;5.00;99.90;;;4.83;74.11;102069.59;4159800;28;20068;-66
2021/04/18 02:19:08;;;;;;;7.00;4.25;;;5.00;99.90;;;4.80;75.04;102075.00;4170191;28;20026;-66
2021/04/18 02:21:09;;;;;;;7.63;3.95;;;5.00;99.90;;;4.80;74.97;102073.22;4181646;28;20025;-66
2021/04/18 02:23:10;;;;;;;7.18;4.00;;;5.00;99.90;;;4.71;75.00;102072.88;4170914;28;20033;-66
2021/04/18 02:25:13;;;;;;;7.30;4.65;;;5.00;99.90;;;4.79;74.67;102078.53;4169845;28;20021;-66
2021/04/18 02:27:14;;;;;;;4.30;3.90;;;4.90;99.90;;;4.60;75.84;102070.03;4161510;28;20033;-66
2021/04/18 02:29:15;;;;;;;9.13;4.70;;;4.80;99.90;;;4.57;75.54;102060.56;4169865;28;20029;-66
2021/04/18 02:31:16;;;;;;;8.75;4.45;;;4.80;99.90;;;4.42;75.55;102064.88;4170951;28;20415;-66
2021/04/18 02:33:17;;;;;;;7.22;3.63;;;4.70;99.90;;;4.47;74.75;102062.03;4169743;28;20072;-66
2021/04/18 02:35:17;;;;;;;6.75;3.83;;;4.80;99.90;;;4.47;75.00;102057.66;4186401;28;20032;-66
2021/04/18 02:37:18;;;;;;;5.07;4.05;;;4.70;99.90;;;4.55;75.27;102061.59;4170708;28;20401;-66
2021/04/18 02:39:19;;;;;;;4.90;4.10;;;4.70;99.90;;;4.59;74.37;102058.75;4170781;28;20072;-66
2021/04/18 02:41:21;;;;;;;5.00;3.80;;;4.80;99.90;;;4.52;73.88;102060.00;4169484;28;20026;-66
2021/04/18 02:43:22;;;;;;;6.68;3.88;;;4.80;99.90;;;4.47;74.40;102062.88;4153039;28;20121;-66
2021/04/18 02:45:22;;;;;;;6.93;4.15;;;4.70;99.90;;;4.18;75.11;102054.94;4169443;28;20026;-66
2021/04/18 02:47:23;;;;;;;6.32;3.65;;;4.60;99.90;;;4.22;75.55;102048.63;4186134;28;20547;-66
2021/04/18 02:49:24;;;;;;;4.20;3.75;;;4.60;99.90;;;4.36;75.22;102059.19;4169449;28;20026;-66
2021/04/18 02:51:25;;;;;;;9.38;4.32;;;4.60;99.90;;;4.29;75.63;102056.06;4170650;28;20033;-66
2021/04/18 02:53:26;;;;;;;5.50;4.18;;;4.50;99.90;;;4.34;75.59;102054.03;4169239;28;20560;-66
2021/04/18 02:55:27;;;;;;;6.88;3.20;;;4.60;99.90;;;4.36;75.22;102054.78;4185997;28;20025;-66
2021/04/18 02:57:28;;;;;;;5.88;3.63;;;4.60;99.90;;;4.39;75.10;102049.38;4169211;28;20491;-66
2021/04/18 02:59:29;;;;;;;5.10;3.28;;;4.60;99.90;;;4.40;74.97;102061.53;4169404;28;20034;-66
2021/04/18 03:01:30;;;;;;;5.18;3.42;;;4.50;99.90;;;4.36;75.03;102046.94;4179104;28;20021;-66
2021/04/18 03:03:31;;;;;;;4.72;4.22;;;4.50;99.90;;;4.13;75.81;102052.56;4152802;28;20062;-66
2021/04/18 03:05:32;;;;;;;6.28;4.78;;;4.50;99.90;;;4.05;76.35;102054.75;4185672;28;20044;-66
2021/04/18 03:07:33;;;;;;;4.85;3.63;;;4.40;99.90;;;3.92;76.78;102053.72;4158857;28;20163;-66
2021/04/18 03:09:34;;;;;;;7.38;4.05;;;4.30;99.90;;;3.95;76.79;102056.16;4169306;28;20404;-66
2021/04/18 03:11:36;;;;;;;5.60;3.65;;;4.30;99.90;;;4.02;77.53;102054.06;4169281;28;20064;-66
2021/04/18 03:13:38;;;;;;;5.97;3.75;;;4.20;99.90;;;3.95;76.92;102048.34;4185535;28;20391;-66
2021/04/18 03:15:39;;;;;;;6.10;3.60;;;4.20;99.90;;;3.95;76.30;102045.72;4169198;28;20033;-66
2021/04/18 03:17:40;;;;;;;5.85;4.07;;;4.20;99.90;;;3.99;76.70;102047.25;4169052;28;20412;-66
2021/04/18 03:19:41;;;;;;;8.55;4.65;;;4.10;99.90;;;4.10;75.12;102044.91;4181751;28;20025;-66
2021/04/18 03:21:42;;;;;;;4.60;3.75;;;4.30;99.90;;;4.15;75.19;102044.66;4169086;28;20484;-66
2021/04/18 03:23:43;;;;;;;5.88;3.75;;;4.30;99.90;;;4.02;76.36;102041.88;4158095;28;20029;-66
2021/04/18 03:25:44;;;;;;;5.15;3.53;;;4.30;99.90;;;4.03;76.89;102040.97;4161565;28;20456;-66
2021/04/18 03:27:45;;;;;;;5.97;3.92;;;4.30;99.90;;;4.07;76.95;102050.28;4170155;28;20036;-66
2021/04/18 03:29:46;;;;;;;5.15;3.90;;;4.30;99.90;;;4.19;76.16;102041.81;4185062;28;20025;-66
2021/04/18 03:31:47;;;;;;;4.82;3.78;;;4.30;99.90;;;4.22;76.18;102054.69;4152379;28;20042;-66
2021/04/18 03:33:48;;;;;;;6.40;3.75;;;4.30;99.90;;;4.34;76.12;102056.63;4160941;28;20050;-66
2021/04/18 03:35:49;;;;;;;6.90;4.15;;;4.40;99.90;;;4.23;76.38;102053.78;4164348;28;20033;-66
2021/04/18 03:37:50;;;;;;;6.20;4.00;;;4.40;99.90;;;4.29;75.90;102063.88;4169503;28;20041;-66
2021/04/18 03:39:51;;;;;;;7.03;4.00;;;4.40;99.90;;;4.19;76.73;102052.25;4168818;28;20022;-66
2021/04/18 03:41:52;;;;;;;8.98;4.30;;;4.40;99.90;;;4.01;75.99;102044.56;4161548;28;20026;-66
2021/04/18 03:43:53;;;;;;;6.15;4.07;;;4.30;99.90;;;4.05;76.11;102059.13;4169784;28;20112;-66
2021/04/18 03:45:54;;;;;;;6.28;4.43;;;4.30;99.90;;;4.06;76.37;102055.59;4168574;28;20099;-66
2021/04/18 03:47:55;;;;;;;4.55;3.53;;;4.30;99.90;;;4.04;75.95;102054.81;4157958;28;20034;-66
2021/04/18 03:49:56;;;;;;;7.57;3.92;;;4.30;99.90;;;3.91;76.75;102057.28;4169743;28;20064;-66
2021/04/18 03:51:57;;;;;;;5.47;3.63;;;4.20;99.90;;;3.84;76.73;102053.28;4168263;28;20033;-66
2021/04/18 03:53:58;;;;;;;8.98;4.25;;;4.20;99.90;;;3.97;76.64;102058.72;4166046;28;20048;-66
2021/04/18 03:55:59;;;;;;;6.63;3.90;;;4.20;99.90;;;4.09;75.42;102055.44;4156934;28;20037;-66
2021/04/18 03:58:00;;;;;;;6.95;3.88;;;4.30;99.90;;;4.13;75.80;102056.94;4168322;28;20029;-66
2021/04/18 04:00:00;;;;;;;7.47;4.63;;;4.20;99.90;;;4.04;75.75;102053.06;4168391;28;20029;-66
2021/04/18 04:02:01;;;;;;;5.05;4.10;;;4.20;99.90;;;4.03;75.67;102047.94;4182339;28;20146;-66
2021/04/18 04:04:02;;;;;;;6.85;4.13;;;4.20;99.90;;;4.05;75.94;102038.25;4168346;28;20037;-66
2021/04/18 04:06:05;;;;;;;6.85;3.97;;;4.20;99.90;;;3.92;76.57;102044.13;4158725;28;20021;-66
2021/04/18 04:08:06;;;;;;;6.70;3.72;;;4.20;99.90;;;3.86;76.27;102026.19;4162186;28;20057;-66
2021/04/18 04:10:08;;;;;;;5.85;4.05;;;4.20;99.90;;;3.99;75.31;102034.22;4168046;28;20497;-66
2021/04/18 04:12:09;;;;;;;8.15;4.25;;;4.20;99.90;;;4.11;75.57;102027.47;4169313;28;20026;-66
2021/04/18 04:14:10;;;;;;;9.32;4.65;;;4.30;99.90;;;4.24;74.88;102039.75;4169319;28;20029;-66
2021/04/18 04:16:11;;;;;;;6.82;4.35;;;4.40;99.90;;;4.25;74.96;102031.03;4169293;28;20131;-66
2021/04/18 04:18:12;;;;;;;6.72;4.95;;;4.40;99.90;;;4.34;74.03;102030.50;4167849;28;20030;-66
2021/04/18 04:20:14;;;;;;;5.18;3.60;;;4.40;99.90;;;4.21;75.16;102032.09;4171604;28;20171;-66
2021/04/18 04:22:15;;;;;;;7.78;4.28;;;4.50;99.90;;;4.15;75.83;102029.81;4167730;28;20022;-66
2021/04/18 04:24:16;;;;;;;6.18;3.85;;;4.40;99.90;;;4.11;75.78;102027.47;4169209;28;20539;-66
2021/04/18 04:26:17;;;;;;;8.52;4.18;;;4.40;99.90;;;4.03;75.68;102032.28;4167793;28;20021;-66
2021/04/18 04:28:18;;;;;;;6.25;4.13;;;4.30;99.90;;;3.99;76.49;102028.13;4155862;28;20079;-66
2021/04/18 04:30:19;;;;;;;4.57;3.85;;;4.30;99.90;;;3.86;76.15;102026.19;4167890;28;20487;-66
2021/04/18 04:32:20;;;;;;;7.63;3.97;;;4.20;99.90;;;3.84;76.41;102029.81;4162331;28;20033;-66
2021/04/18 04:34:21;;;;;;;8.25;5.07;;;4.10;99.90;;;3.77;76.81;102029.28;4167672;28;20049;-66
2021/04/18 04:36:22;;;;;;;6.85;4.47;;;4.10;99.90;;;3.67;77.46;102037.69;4184026;28;20025;-66
2021/04/18 04:38:23;;;;;;;5.03;3.67;;;4.00;99.90;;;3.55;77.35;102017.44;4167491;28;20017;-66
2021/04/18 04:40:25;;;;;;;6.57;4.53;;;3.90;99.90;;;3.64;76.97;102032.63;4177228;28;20032;-66
2021/04/18 04:42:26;;;;;;;8.35;4.05;;;3.90;99.90;;;3.63;77.60;102031.78;4168818;28;20064;-66
2021/04/18 04:44:28;;;;;;;6.80;4.47;;;3.80;99.90;;;3.48;77.77;102021.28;4167530;28;20507;-66
2021/04/18 04:46:29;;;;;;;4.53;4.00;;;3.80;99.90;;;3.44;78.42;102032.78;4158640;28;20029;-66
2021/04/18 04:48:30;;;;;;;5.75;3.67;;;3.70;99.90;;;3.45;78.52;102034.50;4168827;28;20018;-66
2021/04/18 04:50:31;;;;;;;4.53;3.60;;;3.80;99.90;;;3.40;78.37;102028.69;4168824;28;20493;-66
2021/04/18 04:52:32;;;;;;;6.43;4.20;;;3.70;99.90;;;3.27;78.29;102038.88;4168558;28;20017;-66
2021/04/18 04:54:33;;;;;;;7.43;5.03;;;3.60;99.90;;;3.12;78.41;102043.09;4167655;28;20021;-66
2021/04/18 04:56:34;;;;;;;4.78;3.85;;;3.60;99.90;;;3.04;79.52;102040.06;4161383;28;20022;-66
2021/04/18 04:58:35;;;;;;;9.10;4.63;;;3.50;99.90;;;3.13;79.19;102039.59;4167511;28;20582;-66
2021/04/18 05:00:36;;;;;;;5.70;4.22;;;3.40;99.90;;;3.25;79.36;102022.47;4167341;28;20029;-66
2021/04/18 05:02:37;;;;;;;7.18;4.35;;;3.50;99.90;;;3.16;79.40;102036.84;4158044;28;20021;-66
2021/04/18 05:04:38;;;;;;;7.07;4.38;;;3.50;99.90;;;3.05;79.43;102033.03;4168674;28;20063;-66
2021/04/18 05:06:39;;;;;;;8.25;4.32;;;3.50;99.90;;;3.05;80.23;102044.31;4167741;28;20029;-66
2021/04/18 05:08:40;;;;;;;6.70;4.05;;;3.40;99.90;;;3.00;80.81;102046.31;4167053;28;20056;-66
2021/04/18 05:10:41;;;;;;;6.63;4.78;;;3.40;99.90;;;3.06;80.49;102043.41;4156377;28;20029;-66
2021/04/18 05:12:41;;;;;;;5.78;4.68;;;3.40;99.90;;;3.18;80.73;102048.00;4167489;28;20036;-66
2021/04/18 05:14:43;;;;;;;5.63;4.07;;;3.40;99.90;;;3.11;80.58;102032.75;4150916;28;20026;-66
2021/04/18 05:16:44;;;;;;;9.32;4.10;;;3.40;99.90;;;3.27;80.04;102042.34;4167164;28;20061;-66
2021/04/18 05:18:45;;;;;;;7.93;3.95;;;3.50;99.90;;;3.19;80.61;102041.03;4167429;28;20021;-66
2021/04/18 05:20:46;;;;;;;5.38;3.90;;;3.50;99.90;;;3.20;80.90;102038.34;4168730;28;20025;-66
2021/04/18 05:22:47;;;;;;;8.68;4.40;;;3.50;99.90;;;3.30;80.76;102052.63;4150731;28;20449;-66
2021/04/18 05:24:48;;;;;;;4.13;3.65;;;3.60;99.90;;;3.23;81.28;102042.56;4167190;28;20057;-66
2021/04/18 05:26:48;;;;;;;6.05;4.32;;;3.50;99.90;;;3.27;81.36;102044.94;4167387;28;20033;-66
2021/04/18 05:28:49;;;;;;;9.23;4.30;;;3.50;99.90;;;3.26;80.63;102048.47;4183778;28;20037;-66
2021/04/18 05:30:50;;;;;;;6.25;3.80;;;3.60;99.90;;;3.13;81.66;102036.97;4168371;28;20030;-66
2021/04/18 05:32:51;;;;;;;7.55;4.30;;;3.60;99.90;;;3.26;80.38;102039.78;4168167;28;20049;-66
2021/04/18 05:34:52;;;;;;;7.25;3.85;;;3.50;99.90;;;3.37;80.70;102034.91;4168741;28;20396;-66
2021/04/18 05:36:53;;;;;;;6.93;4.18;;;3.60;99.90;;;3.43;79.58;102038.94;4167278;28;20115;-66
2021/04/18 05:38:54;;;;;;;5.90;4.00;;;3.70;99.90;;;3.47;80.84;102050.91;4168665;28;20381;-66
2021/04/18 05:40:55;;;;;;;4.35;3.72;;;3.70;99.90;;;3.57;79.85;102047.75;4167192;28;20029;-66
2021/04/18 05:42:56;;;;;;;9.63;4.53;;;3.70;99.90;;;3.62;80.79;102056.16;4167483;28;20100;-66
2021/04/18 05:44:57;;;;;;;6.65;4.15;;;3.80;99.90;;;3.64;80.43;102051.75;4167608;28;20461;-66
2021/04/18 05:46:58;;;;;;;6.97;3.80;;;3.90;99.90;;;3.62;80.10;102048.34;4168615;28;20025;-66
2021/04/18 05:48:59;;;;;;;7.10;3.95;;;3.90;99.90;;;3.61;80.21;102053.66;4168380;28;20033;-66
2021/04/18 05:51:00;;;;;;;6.13;3.67;;;3.90;99.90;;;3.53;80.62;102055.78;4167702;28;20036;-66
2021/04/18 05:53:01;;;;;;;6.32;4.38;;;3.90;99.90;;;3.58;80.50;102054.66;4168080;28;20120;-66
2021/04/18 05:55:03;;;;;;;5.15;3.55;;;3.90;99.90;;;3.52;80.07;102059.34;4167200;28;20056;-66
2021/04/18 05:57:04;;;;;;;5.55;4.18;;;3.80;99.90;;;3.59;80.15;102056.31;4168173;28;20034;-66
2021/04/18 05:59:05;;;;;;;4.45;3.85;;;3.90;99.90;;;3.67;80.00;102062.00;4154267;28;20018;-66
2021/04/18 06:01:06;;;;;;;6.32;4.07;;;3.90;99.90;;;3.85;79.45;102055.00;4168334;28;20017;-66
2021/04/18 06:03:07;;;;;;;6.40;3.92;;;4.00;99.90;;;3.86;79.45;102065.34;4167075;28;20029;-66
2021/04/18 06:05:09;;;;;;;8.48;4.57;;;4.10;99.90;;;3.95;79.40;102057.94;4168259;28;20077;-66
2021/04/18 06:07:09;;;;;;;9.98;4.38;;;4.20;99.90;;;3.95;79.79;102056.16;4166854;28;20030;-66
2021/04/18 06:09:10;;;;;;;5.78;3.67;;;4.30;99.90;;;4.13;79.45;102068.25;4168059;28;20047;-66
2021/04/18 06:11:11;;;;;;;6.20;3.72;;;4.40;99.90;;;4.18;78.83;102071.44;4168327;28;20515;-66
2021/04/18 06:13:12;;;;;;;4.70;3.67;;;4.40;99.90;;;4.17;79.16;102061.94;4167067;28;20071;-66
2021/04/18 06:15:13;;;;;;;9.48;3.85;;;4.50;99.90;;;4.34;78.53;102076.69;4167355;28;20052;-66
2021/04/18 06:17:14;;;;;;;8.98;4.20;;;4.60;99.90;;;4.24;79.19;102059.84;4166727;28;20033;-66
2021/04/18 06:19:16;;;;;;;8.57;4.10;;;4.70;99.90;;;4.31;79.12;102071.63;4163494;28;20366;-66
2021/04/18 06:21:18;;;;;;;6.60;4.18;;;4.70;99.90;;;4.47;78.08;102073.34;4159837;28;20034;-66
2021/04/18 06:23:21;;;;;;;8.55;4.05;;;4.80;99.90;;;4.56;77.48;102079.81;4170691;28;20116;-66
2021/04/18 06:25:25;;;;;;;6.65;3.78;;;4.90;99.90;;;4.60;77.42;102075.28;4169062;28;20517;-66
2021/04/18 06:27:26;;;;;;;8.55;3.92;;;5.10;99.90;;;4.61;77.54;102082.16;4168987;28;20036;-66
2021/04/18 06:29:27;;;;;;;5.93;3.85;;;5.10;99.90;;;4.81;77.29;102097.56;4168152;28;20386;-66
2021/04/18 06:31:28;;;;;;;7.18;4.25;;;5.10;99.90;;;4.55;77.73;102088.56;4169726;28;20315;-66
2021/04/18 06:33:29;;;;;;;8.20;4.13;;;5.20;99.90;;;4.59;77.83;102089.25;4186019;28;20412;-66
2021/04/18 06:35:30;;;;;;;6.30;3.55;;;5.20;99.90;;;4.67;77.61;102093.13;4170911;28;20032;-66
2021/04/18 06:37:32;;;;;;;5.35;4.00;;;5.30;99.90;;;4.61;78.21;102080.41;4170598;28;20033;-67
2021/04/18 06:39:33;;;;;;;7.40;4.15;;;5.40;99.90;;;4.69;77.58;102082.59;4169699;28;21332;-66
2021/04/18 06:41:36;;;;;;;6.18;3.95;;;5.40;99.90;;;4.68;77.64;102078.28;4169491;28;20026;-66
2021/04/18 06:43:38;;;;;;;5.57;4.03;;;5.40;99.90;;;4.64;78.12;102082.84;4169320;28;20022;-66
2021/04/18 06:45:40;;;;;;;7.18;4.00;;;5.40;99.90;;;4.79;78.11;102068.06;4169464;28;20033;-66
2021/04/18 06:47:41;;;;;;;5.93;4.35;;;5.40;99.90;;;4.82;77.10;102079.19;4169406;28;20512;-66
2021/04/18 06:49:42;;;;;;;10.73;4.30;;;5.50;99.90;;;4.81;76.60;102071.44;4170547;28;20093;-66
2021/04/18 06:51:44;;;;;;;8.88;4.30;;;5.40;99.90;;;4.91;77.03;102070.00;4169434;28;20067;-66
2021/04/18 06:53:47;;;;;;;7.80;4.03;;;5.50;99.90;;;5.04;76.44;102068.38;4185472;28;20056;-66
2021/04/18 06:55:48;;;;;;;9.32;4.55;;;5.60;99.90;;;4.96;76.45;102075.78;4169464;28;20609;-66
2021/04/18 06:57:49;;;;;;;6.72;4.10;;;5.60;99.90;;;5.04;76.37;102076.22;4169227;28;20044;-66
2021/04/18 06:59:50;;;;;;;8.60;4.60;;;5.70;99.90;;;4.94;76.47;102075.88;4185719;28;20021;-66
2021/04/18 07:01:51;;;;;;;6.07;4.03;;;5.70;99.90;;;5.07;77.20;102085.66;4169042;28;20025;-66
2021/04/18 07:04:09;;;;;;;7.15;4.03;;;5.70;99.90;;;5.19;76.70;102093.63;4185481;28;20021;-66
2021/04/18 07:06:10;;;;;;;4.93;4.38;;;5.70;99.90;;;5.16;76.35;102093.81;4170204;28;20155;-66
2021/04/18 07:08:32;;;;;;;7.68;4.32;;;5.80;99.90;;;5.27;76.62;102096.66;4169922;28;20026;-66
2021/04/18 07:10:33;;;;;;;8.32;4.68;;;5.90;99.90;;;5.35;76.00;102094.41;4157133;28;20477;-67
2021/04/18 07:12:35;;;;;;;7.25;3.83;;;5.90;99.90;;;5.35;76.40;102093.56;4168991;28;20080;-67
2021/04/18 07:14:36;;;;;;;8.70;4.63;;;6.00;99.90;;;5.45;77.06;102100.81;4170247;28;20025;-66
2021/04/18 07:16:37;;;;;;;10.50;5.05;;;6.00;99.90;;;5.23;76.37;102091.66;4169869;28;20395;-66
2021/04/18 07:18:41;;;;;;;8.32;4.63;;;6.10;99.90;;;5.18;76.13;102097.19;4168586;28;20029;-66
2021/04/18 07:20:55;;;;;;;8.75;4.30;;;6.10;99.90;;;5.42;76.38;102101.00;4169837;28;20021;-66
2021/04/18 07:22:56;;;;;;;9.55;4.80;;;6.10;99.90;;;5.40;76.66;102102.88;4169757;28;20488;-67
2021/04/18 07:25:01;;;;;;;8.43;4.45;;;6.20;99.90;;;5.57;76.09;102109.72;4169834;28;20033;-67
2021/04/18 07:27:06;;;;;;;9.98;4.53;;;6.30;99.90;;;5.63;75.72;102101.50;4170000;28;20033;-66
2021/04/18 07:29:18;;;;;;;12.18;4.80;;;6.30;99.90;;;5.65;76.04;102101.38;4168188;28;20455;-66
2021/04/18 07:31:32;;;;;;;6.03;4.40;;;6.40;99.90;;;5.66;76.14;102100.47;4169569;28;20072;-66
2021/04/18 07:33:33;;;;;;;6.45;4.22;;;6.40;99.90;;;5.76;75.85;102105.06;4169624;28;20107;-66
2021/04/18 07:35:40;;;;;;;6.97;4.72;;;6.50;99.90;;;5.84;76.27;102104.59;4169832;28;20488;-67
2021/04/18 07:37:41;;;;;;;5.97;3.80;;;6.50;99.90;;;5.57;76.05;102099.25;4168276;28;20064;-66
2021/04/18 07:39:58;;;;;;;9.93;4.70;;;6.50;99.90;;;5.79;75.60;102110.13;4168677;28;20104;-67
2021/04/18 07:42:03;;;;;;;12.88;4.53;;;6.60;99.90;;;5.86;75.63;102108.00;4169746;28;20029;-67
2021/04/18 07:44:07;;;;;;;7.72;4.95;;;6.60;99.90;;;5.67;76.81;102104.78;4168739;28;20037;-66
2021/04/18 07:46:08;;;;;;;8.83;4.40;;;6.70;99.90;;;5.80;77.20;102097.84;4169821;28;20443;-67
2021/04/18 07:48:15;;;;;;;10.55;5.00;;;6.70;99.90;;;5.92;76.81;102099.78;4168543;28;20273;-67
2021/04/18 07:50:20;;;;;;;7.25;4.68;;;6.80;99.90;;;6.15;76.27;102095.75;4168512;28;20083;-67
2021/04/18 07:52:25;;;;;;;10.40;4.90;;;6.90;99.90;;;6.13;75.67;102095.84;4169329;28;20026;-66
2021/04/18 07:54:25;;;;;;;8.02;4.60;;;7.00;99.90;;;6.17;75.25;102083.41;4169511;28;20037;-66
2021/04/18 07:56:27;;;;;;;8.40;4.72;;;7.10;99.90;;;6.44;75.62;102087.78;4169539;28;20026;-67
2021/04/18 07:58:29;;;;;;;7.72;4.43;;;7.20;99.90;;;6.62;75.02;102086.59;4168228;28;20059;-66
2021/04/18 08:00:32;;;;;;;9.95;4.68;;;7.30;99.90;;;6.60;74.17;102085.84;4169333;28;20021;-67
2021/04/18 08:02:34;;;;;;;5.50;4.20;;;7.40;99.90;;;6.63;74.03;102084.84;4168323;28;20068;-67
2021/04/18 08:04:35;;;;;;;8.00;4.47;;;7.50;99.90;;;6.62;74.44;102078.75;4160175;28;20551;-67
2021/04/18 08:06:42;;;;;;;8.75;4.45;;;7.60;99.90;;;6.66;73.80;102074.97;4168146;28;20025;-66
2021/04/18 08:08:49;;;;;;;8.07;4.82;;;7.50;99.90;;;6.85;74.65;102084.28;4167877;28;20484;-67
2021/04/18 08:10:52;;;;;;;12.98;4.68;;;7.60;99.90;;;6.99;73.67;102084.25;4157929;28;20041;-68
2021/04/18 08:13:22;;;;;;;10.88;4.82;;;7.70;99.90;;;6.69;74.36;102081.78;4162789;28;20504;-67
2021/04/18 08:15:23;;;;;;;6.95;4.68;;;7.70;99.90;;;6.80;74.40;102074.09;4169314;28;20036;-67
2021/04/18 08:17:24;;;;;;;7.47;4.50;;;7.60;99.90;;;7.06;72.60;102077.63;4167923;28;20025;-67
2021/04/18 08:19:25;;;;;;;7.07;4.35;;;7.80;99.90;;;7.12;72.44;102064.94;4162934;28;20028;-67
2021/04/18 08:21:37;;;;;;;6.85;4.43;;;7.90;99.90;;;7.37;71.22;102066.78;4167984;28;20025;-67
2021/04/18 08:23:41;;;;;;;9.23;4.72;;;8.00;99.90;;;7.38;72.00;102071.06;4157577;28;20068;-67
2021/04/18 08:26:03;;;;;;;6.15;4.22;;;8.10;99.90;;;7.53;71.15;102067.41;4167810;28;20101;-67
2021/04/18 08:28:13;;;;;;;8.45;5.72;;;8.30;99.90;;;7.54;69.58;102045.47;4168836;28;20030;-67
2021/04/18 08:30:14;;;;;;;9.75;4.65;;;8.40;99.90;;;7.74;70.42;102057.22;4168862;28;20032;-68
2021/04/18 08:32:15;;;;;;;8.38;4.60;;;8.50;99.90;;;7.70;68.38;102053.16;4167648;28;20026;-67
2021/04/18 08:34:26;;;;;;;10.48;5.35;;;8.70;99.90;;;7.52;67.57;102065.75;4163540;28;20100;-67
2021/04/18 08:36:45;;;;;;;12.13;4.53;;;8.60;99.90;;;7.80;68.33;102070.78;4156380;28;20485;-67
2021/04/18 08:38:50;;;;;;;7.38;4.53;;;8.70;99.90;;;7.97;68.43;102066.16;4166522;28;20033;-67